Terminal Aerodrome Forecast
Issued by NWS

Home | Current Version | Previous Version | Text Only | Print | Product List | Glossary On
Versions: 1 2 3 4 5 6 7 8 9 10 11 12 13 14 15 16 17 18
000
FTUS44 KBMX 231549 AAB
TAFMGM
TAF AMD
KMGM 231549Z 2316/2412 28009G18KT P6SM BKN015
     FM231800 29012G18KT P6SM BKN025
     FM240100 28006KT P6SM SCT025 BKN100
     FM240500 28002KT P6SM SKC=

USA.gov is the U.S. government's official web portal to all federal, state and local government web resources and services.